Time;durP1;ratioP1;P1;durP2;ratioP2;P2;SDS_P1;SDS_P2;PMS_P1;PMS_P2;Temp;Humidity;BMP_temperature;BMP_pressure;BME280_temperature;BME280_humidity;BME280_pressure;Samples;Min_cycle;Max_cycle;Signal;HPM_P1;HPM_P2
2022/01/25 00:15:29;;;;;;;6.53;4.82;;;18.20;30.20;;;;;;5141470;27;47011;-12
2022/01/25 00:26:17;;;;;;;6.20;4.97;;;18.30;30.20;;;;;;5142474;27;46951;-21
2022/01/25 00:28:48;;;;;;;6.18;4.97;;;18.30;30.20;;;;;;5144380;27;46919;-21
2022/01/25 00:31:17;;;;;;;5.75;4.90;;;18.30;30.20;;;;;;5143630;27;49533;-21
2022/01/25 00:33:44;;;;;;;7.05;4.93;;;18.30;30.10;;;;;;5143674;27;46801;-20
2022/01/25 00:36:12;;;;;;;6.50;5.22;;;18.30;30.10;;;;;;5143728;27;46837;-21
2022/01/25 00:38:39;;;;;;;5.97;4.82;;;18.30;30.00;;;;;;5143747;27;47239;-21
2022/01/25 00:41:05;;;;;;;5.88;5.07;;;18.30;30.00;;;;;;5143736;27;47083;-21
2022/01/25 00:43:32;;;;;;;5.78;5.18;;;18.30;30.00;;;;;;5143798;27;47432;-20
2022/01/25 00:46:05;;;;;;;6.82;4.90;;;18.30;30.00;;;;;;5143884;27;46933;-21
2022/01/25 00:48:42;;;;;;;6.63;5.38;;;18.30;30.00;;;;;;5143721;27;46913;-21
2022/01/25 00:51:20;;;;;;;7.78;4.95;;;18.30;30.00;;;;;;5143172;27;49089;-21
2022/01/25 00:53:58;;;;;;;6.72;4.78;;;18.30;30.00;;;;;;5143277;27;46820;-21
2022/01/25 00:56:26;;;;;;;6.97;4.95;;;18.30;30.00;;;;;;5143543;27;46791;-13
2022/01/25 00:58:53;;;;;;;5.78;4.88;;;18.30;30.00;;;;;;5143464;27;47054;-13
2022/01/25 01:01:21;;;;;;;5.18;4.68;;;18.30;30.00;;;;;;5143303;27;48114;-13
2022/01/25 01:03:48;;;;;;;5.63;4.85;;;18.30;30.00;;;;;;5143209;27;46841;-13
2022/01/25 01:06:15;;;;;;;5.43;4.80;;;18.20;29.90;;;;;;5143301;27;47056;-12
2022/01/25 01:08:42;;;;;;;7.30;4.97;;;18.30;30.00;;;;;;5143311;27;46967;-13
2022/01/25 01:11:12;;;;;;;5.82;5.25;;;18.30;29.90;;;;;;5142496;27;48156;-13
2022/01/25 01:13:53;;;;;;;5.72;4.70;;;18.30;30.00;;;;;;5143334;27;46836;-12
2022/01/25 01:30:10;;;;;;;5.72;5.00;;;18.30;29.90;;;;;;5126370;27;46875;-12
2022/01/25 01:33:08;;;;;;;4.90;4.40;;;18.30;29.90;;;;;;5129078;27;46934;-12
2022/01/25 01:38:54;;;;;;;6.00;4.90;;;18.30;29.90;;;;;;5111864;27;46976;-21
2022/01/25 01:41:43;;;;;;;5.13;4.63;;;18.30;29.90;;;;;;5129088;27;46954;-20
2022/01/25 01:44:17;;;;;;;6.20;4.85;;;18.20;29.90;;;;;;5128947;27;48231;-13
2022/01/25 01:46:58;;;;;;;4.78;4.28;;;18.10;29.90;;;;;;5128495;27;47229;-13
2022/01/25 01:49:28;;;;;;;5.40;4.53;;;18.20;29.90;;;;;;5128996;27;46811;-12
2022/01/25 01:51:55;;;;;;;5.55;4.82;;;18.20;29.90;;;;;;5128971;27;47079;-12
2022/01/25 01:54:22;;;;;;;5.07;4.47;;;18.20;29.90;;;;;;5128693;27;48125;-13
2022/01/25 01:56:50;;;;;;;5.20;4.70;;;18.20;29.80;;;;;;5128271;27;47386;-12
2022/01/25 01:59:18;;;;;;;6.18;4.65;;;18.20;29.80;;;;;;5128815;27;46939;-13
2022/01/25 02:01:46;;;;;;;6.32;4.57;;;18.20;29.80;;;;;;5128636;27;46857;-13
2022/01/25 02:04:13;;;;;;;5.13;4.53;;;18.20;29.80;;;;;;5128583;27;47944;-13
2022/01/25 02:06:41;;;;;;;4.65;4.25;;;18.20;29.80;;;;;;5128117;27;46881;-13
2022/01/25 02:09:09;;;;;;;4.88;4.38;;;18.20;29.80;;;;;;5128305;27;46893;-12
2022/01/25 02:11:36;;;;;;;5.43;4.38;;;18.20;29.80;;;;;;5127645;27;47199;-12
2022/01/25 02:14:06;;;;;;;5.80;4.82;;;18.30;29.70;;;;;;5128117;27;49041;-12
2022/01/25 02:16:41;;;;;;;4.75;4.35;;;18.20;29.70;;;;;;5128324;27;46900;-13
2022/01/25 02:24:46;;;;;;;4.85;4.35;;;18.30;29.70;;;;;;5089043;27;47344;-21
2022/01/25 02:27:13;;;;;;;5.25;4.70;;;18.30;29.70;;;;;;5127856;27;47447;-21
2022/01/25 02:29:40;;;;;;;4.72;4.15;;;18.30;29.70;;;;;;5128156;27;46862;-21
2022/01/25 02:32:07;;;;;;;4.90;3.95;;;18.20;29.70;;;;;;5127841;27;46780;-20
2022/01/25 02:34:34;;;;;;;4.78;4.20;;;18.20;29.80;;;;;;5127048;27;48226;-21
2022/01/25 02:37:03;;;;;;;5.38;4.10;;;18.20;29.70;;;;;;5127514;27;46924;-20
2022/01/25 02:39:30;;;;;;;4.45;4.05;;;18.20;29.70;;;;;;5127856;27;46911;-20
2022/01/25 02:41:57;;;;;;;5.97;4.30;;;18.30;29.70;;;;;;5127846;27;46853;-20
2022/01/25 02:44:25;;;;;;;4.97;3.92;;;18.20;29.60;;;;;;5127717;27;46874;-21
2022/01/25 02:49:38;;;;;;;6.30;4.35;;;18.20;29.70;;;;;;5127622;27;46925;-21
2022/01/25 02:52:07;;;;;;;4.80;4.30;;;18.20;29.70;;;;;;5127479;27;46856;-21
2022/01/25 02:54:35;;;;;;;4.80;4.30;;;18.20;29.70;;;;;;5127497;27;48854;-21
2022/01/25 02:57:02;;;;;;;5.35;4.13;;;18.20;29.70;;;;;;5127189;27;47028;-21
2022/01/25 02:59:29;;;;;;;6.20;4.35;;;18.20;29.60;;;;;;5127853;27;46847;-13
2022/01/25 03:01:55;;;;;;;5.47;4.25;;;18.20;29.50;;;;;;5127682;27;47286;-13
2022/01/25 03:04:23;;;;;;;4.47;4.05;;;18.20;29.60;;;;;;5127640;27;47229;-13
2022/01/25 03:06:50;;;;;;;5.45;4.38;;;18.20;29.60;;;;;;5127394;27;47090;-13
2022/01/25 03:09:18;;;;;;;4.50;3.75;;;18.20;29.60;;;;;;5127333;27;46899;-12
2022/01/25 03:11:47;;;;;;;5.05;4.18;;;18.20;29.50;;;;;;5126841;27;46959;-13
2022/01/25 03:14:14;;;;;;;4.18;3.78;;;18.20;29.50;;;;;;5127171;27;49053;-13
2022/01/25 03:16:45;;;;;;;5.13;4.18;;;18.20;29.50;;;;;;5127028;27;47154;-20
2022/01/25 03:21:53;;;;;;;4.80;3.97;;;18.10;29.60;;;;;;5127347;27;47236;-21
2022/01/25 03:24:21;;;;;;;4.90;4.32;;;18.20;29.60;;;;;;5127331;27;47823;-20
2022/01/25 03:26:48;;;;;;;4.97;4.30;;;18.20;29.50;;;;;;5126859;27;47472;-21
2022/01/25 03:29:14;;;;;;;5.82;4.38;;;18.20;29.50;;;;;;5127086;27;46881;-21
2022/01/25 03:31:41;;;;;;;5.13;4.18;;;18.10;29.50;;;;;;5127032;27;46957;-20
2022/01/25 03:34:08;;;;;;;5.70;3.92;;;18.10;29.50;;;;;;5126838;27;48482;-21
2022/01/25 03:36:34;;;;;;;4.65;4.25;;;18.10;29.50;;;;;;5126916;27;46926;-21
2022/01/25 03:39:01;;;;;;;5.25;4.05;;;18.10;29.50;;;;;;5127088;27;46837;-20
2022/01/25 03:41:30;;;;;;;4.90;4.38;;;18.10;29.90;;;;;;5126910;27;46891;-21
2022/01/25 03:43:57;;;;;;;4.43;3.92;;;18.20;29.50;;;;;;5127050;27;48084;-20
2022/01/25 03:46:31;;;;;;;4.32;3.92;;;18.20;29.40;;;;;;5126554;27;46887;-20
2022/01/25 03:51:42;;;;;;;4.32;3.90;;;18.10;29.40;;;;;;5125903;27;46968;-21
2022/01/25 03:54:08;;;;;;;4.85;4.18;;;18.10;29.40;;;;;;5126821;27;47861;-21
2022/01/25 03:56:37;;;;;;;5.40;4.18;;;18.10;29.40;;;;;;5126403;27;47136;-21
2022/01/25 03:59:04;;;;;;;5.43;4.15;;;18.10;29.40;;;;;;5126715;27;46749;-30
2022/01/25 04:01:31;;;;;;;4.32;3.92;;;18.10;29.40;;;;;;5126471;27;46887;-21
2022/01/25 04:04:01;;;;;;;4.57;4.15;;;18.10;29.40;;;;;;5126798;27;48891;-20
2022/01/25 04:06:30;;;;;;;4.65;3.95;;;18.10;29.50;;;;;;5126703;27;46983;-21
2022/01/25 04:08:57;;;;;;;5.70;4.70;;;18.10;29.50;;;;;;5126729;27;46885;-21
2022/01/25 04:11:24;;;;;;;4.72;3.83;;;18.10;29.40;;;;;;5125863;27;47345;-21
2022/01/25 04:13:53;;;;;;;4.80;4.40;;;18.10;29.40;;;;;;5126786;27;48098;-21
2022/01/25 04:16:24;;;;;;;4.55;3.80;;;18.10;29.40;;;;;;5126098;27;46887;-20
2022/01/25 04:18:59;;;;;;;4.90;3.95;;;18.10;29.40;;;;;;5126590;27;46862;-20
2022/01/25 04:21:43;;;;;;;4.38;3.97;;;18.10;29.40;;;;;;5126608;27;46941;-21
2022/01/25 04:26:55;;;;;;;4.60;3.67;;;18.10;29.30;;;;;;5125675;27;46875;-13
2022/01/25 04:29:23;;;;;;;4.80;4.25;;;18.10;29.30;;;;;;5126208;27;46904;-21
2022/01/25 04:31:49;;;;;;;4.38;3.60;;;18.10;29.30;;;;;;5126015;27;47207;-21
2022/01/25 04:34:37;;;;;;;4.50;3.90;;;18.10;29.30;;;;;;5126516;27;48799;-20
2022/01/25 04:50:59;;;;;;;4.60;3.88;;;18.10;29.30;;;;;;5118397;27;46984;-21
2022/01/25 04:53:36;;;;;;;3.72;3.42;;;18.10;29.30;;;;;;5105531;27;47040;-21
2022/01/25 04:56:10;;;;;;;4.18;3.78;;;18.10;29.30;;;;;;5105054;27;48782;-21
2022/01/25 04:58:43;;;;;;;4.15;3.75;;;18.10;29.20;;;;;;5108016;27;46873;-22
2022/01/25 05:01:11;;;;;;;4.55;3.78;;;18.10;29.20;;;;;;5108547;27;46980;-21
2022/01/25 05:03:53;;;;;;;4.70;3.78;;;18.10;29.20;;;;;;5108918;27;46980;-21
2022/01/25 05:06:20;;;;;;;3.83;3.50;;;18.10;29.20;;;;;;5108790;27;46825;-21
2022/01/25 05:08:50;;;;;;;4.18;3.70;;;18.10;29.20;;;;;;5108554;27;47127;-21
2022/01/25 05:11:25;;;;;;;4.63;3.97;;;18.10;29.20;;;;;;5108562;27;46893;-20
2022/01/25 05:13:56;;;;;;;4.05;3.33;;;18.10;29.20;;;;;;5108721;27;46985;-21
2022/01/25 05:16:30;;;;;;;4.55;3.70;;;18.10;29.20;;;;;;5108782;27;47698;-13
2022/01/25 05:19:06;;;;;;;4.30;3.65;;;18.10;29.20;;;;;;5108753;27;46889;-13
2022/01/25 05:24:17;;;;;;;5.25;3.63;;;18.10;29.20;;;;;;5106024;27;46990;-13
2022/01/25 05:26:44;;;;;;;5.25;3.70;;;18.10;29.20;;;;;;5108033;27;49052;-12
2022/01/25 05:29:11;;;;;;;4.00;3.30;;;18.10;29.20;;;;;;5108402;27;46976;-13
2022/01/25 05:31:39;;;;;;;3.92;3.53;;;18.00;29.10;;;;;;5108398;27;47240;-13
2022/01/25 05:34:07;;;;;;;3.95;3.58;;;18.00;29.10;;;;;;5108457;27;46953;-12
2022/01/25 05:36:34;;;;;;;3.97;3.60;;;18.00;29.20;;;;;;5107969;27;47931;-13
2022/01/25 05:39:06;;;;;;;4.72;4.05;;;18.00;29.20;;;;;;5108343;27;47415;-13
2022/01/25 05:41:33;;;;;;;4.13;3.70;;;18.00;29.20;;;;;;5108132;27;46896;-12
2022/01/25 05:44:22;;;;;;;4.97;4.07;;;18.00;29.20;;;;;;5108456;27;46860;-13
2022/01/25 05:47:04;;;;;;;4.13;3.72;;;18.00;29.10;;;;;;5107745;27;48268;-21
2022/01/25 05:49:31;;;;;;;4.38;3.97;;;18.00;29.20;;;;;;5108260;27;46884;-21
2022/01/25 05:51:57;;;;;;;4.40;4.00;;;18.00;29.20;;;;;;5108091;27;46751;-21
2022/01/25 05:54:24;;;;;;;4.93;4.28;;;18.00;29.30;;;;;;5108229;27;47376;-21
2022/01/25 05:56:51;;;;;;;4.85;4.35;;;18.00;29.20;;;;;;5107594;27;49088;-21
2022/01/25 05:59:17;;;;;;;4.85;4.35;;;18.00;29.20;;;;;;5107742;27;46911;-12
2022/01/25 06:01:46;;;;;;;4.75;4.25;;;18.00;29.10;;;;;;5107584;27;46793;-12
2022/01/25 06:04:14;;;;;;;4.80;4.22;;;17.90;29.10;;;;;;5108074;27;46814;-12
2022/01/25 06:06:40;;;;;;;4.68;3.97;;;17.90;29.20;;;;;;5107436;27;47913;-13
2022/01/25 06:09:07;;;;;;;4.75;3.88;;;17.90;29.20;;;;;;5107787;27;46943;-13
2022/01/25 06:11:34;;;;;;;4.53;4.05;;;17.90;29.20;;;;;;5107063;27;46887;-13
2022/01/25 06:14:01;;;;;;;5.13;4.13;;;18.00;29.20;;;;;;5107683;27;47332;-13
2022/01/25 06:16:29;;;;;;;4.75;4.20;;;17.90;29.20;;;;;;5107659;27;46880;-12
2022/01/25 06:18:55;;;;;;;5.30;4.60;;;17.90;29.20;;;;;;5107363;27;47662;-12
2022/01/25 06:21:23;;;;;;;5.68;4.70;;;17.90;29.20;;;;;;5107513;27;46872;-13
2022/01/25 06:23:50;;;;;;;5.75;4.88;;;17.90;29.20;;;;;;5107915;27;46903;-13
2022/01/25 06:26:17;;;;;;;4.22;3.83;;;17.90;29.20;;;;;;5107392;27;48228;-12
2022/01/25 06:28:44;;;;;;;4.80;4.30;;;17.90;29.20;;;;;;5107423;27;46972;-14
2022/01/25 06:31:10;;;;;;;5.03;4.53;;;17.90;29.10;;;;;;5107246;27;46892;-12
2022/01/25 06:33:38;;;;;;;5.50;4.22;;;17.90;29.20;;;;;;5107708;27;47202;-12
2022/01/25 06:36:06;;;;;;;4.65;4.13;;;17.90;29.20;;;;;;5106408;27;49036;-21
2022/01/25 06:38:34;;;;;;;5.50;4.82;;;17.90;29.20;;;;;;5106389;27;46869;-20
2022/01/25 06:41:01;;;;;;;4.63;4.13;;;18.00;29.20;;;;;;5106970;27;46864;-20
2022/01/25 06:43:28;;;;;;;4.82;4.32;;;18.00;29.20;;;;;;5107436;27;46919;-22
2022/01/25 06:45:59;;;;;;;5.20;4.50;;;18.00;29.10;;;;;;5107091;27;48832;-21
2022/01/25 06:48:26;;;;;;;4.82;4.20;;;18.00;29.20;;;;;;5107020;27;47147;-21
2022/01/25 06:50:53;;;;;;;4.63;4.00;;;18.00;29.20;;;;;;5107172;27;46891;-21
2022/01/25 06:53:19;;;;;;;4.38;3.97;;;18.00;29.20;;;;;;5106611;27;46899;-21
2022/01/25 06:55:47;;;;;;;4.32;3.90;;;18.00;29.20;;;;;;5106023;27;47849;-22
2022/01/25 06:58:14;;;;;;;4.13;3.72;;;18.00;29.10;;;;;;5107012;27;47440;-21
2022/01/25 07:00:41;;;;;;;4.70;4.10;;;18.00;29.20;;;;;;5106764;27;47035;-21
2022/01/25 07:03:08;;;;;;;4.32;3.90;;;17.90;29.10;;;;;;5106545;27;46918;-21
2022/01/25 07:05:34;;;;;;;4.75;3.42;;;17.90;29.20;;;;;;5106181;27;48897;-21
2022/01/25 07:08:01;;;;;;;4.50;4.10;;;17.90;29.20;;;;;;5106722;27;47023;-22
2022/01/25 07:10:28;;;;;;;4.75;3.78;;;17.90;29.20;;;;;;5106243;27;46855;-22
2022/01/25 07:12:56;;;;;;;4.97;3.80;;;17.90;29.10;;;;;;5106670;27;47131;-21
2022/01/25 07:15:22;;;;;;;4.72;3.80;;;18.00;29.10;;;;;;5106855;27;48956;-21
2022/01/25 07:17:49;;;;;;;5.47;4.45;;;17.90;29.10;;;;;;5106642;27;47246;-21
2022/01/25 07:20:16;;;;;;;3.75;3.42;;;17.90;29.10;;;;;;5106055;27;46907;-21
2022/01/25 07:22:43;;;;;;;3.90;3.50;;;17.90;29.10;;;;;;5106660;27;46859;-20
2022/01/25 07:25:11;;;;;;;4.30;3.90;;;17.90;29.10;;;;;;5106505;27;47927;-21
2022/01/25 07:27:37;;;;;;;4.53;4.03;;;17.90;29.10;;;;;;5106406;27;46893;-21
2022/01/25 07:30:07;;;;;;;4.75;3.63;;;18.00;29.10;;;;;;5106769;27;46803;-21
2022/01/25 07:32:33;;;;;;;6.85;4.65;;;17.90;29.10;;;;;;5106791;27;46979;-21
2022/01/25 07:35:00;;;;;;;5.68;4.22;;;17.90;29.50;;;;;;5106377;27;47942;-21
2022/01/25 07:37:27;;;;;;;4.97;4.10;;;17.90;29.10;;;;;;5106416;27;46842;-21
2022/01/25 07:39:55;;;;;;;5.00;3.95;;;17.90;29.60;;;;;;5106393;27;47085;-21
2022/01/25 07:42:22;;;;;;;4.82;4.30;;;17.90;29.10;;;;;;5106820;27;46904;-20
2022/01/25 07:44:49;;;;;;;4.63;4.07;;;17.90;29.10;;;;;;5106353;27;47840;-20
2022/01/25 07:47:17;;;;;;;5.63;4.65;;;17.90;29.10;;;;;;5105775;27;46927;-21
2022/01/25 07:49:44;;;;;;;6.18;4.45;;;17.90;29.10;;;;;;5106292;27;46828;-13
2022/01/25 07:52:10;;;;;;;4.47;4.05;;;17.90;29.10;;;;;;5106267;27;47256;-13
2022/01/25 07:54:37;;;;;;;5.13;4.43;;;17.90;29.10;;;;;;5106121;27;48167;-13
2022/01/25 07:57:04;;;;;;;5.05;4.53;;;17.90;29.00;;;;;;5106154;27;47336;-13
2022/01/25 07:59:31;;;;;;;4.80;4.15;;;17.90;29.00;;;;;;5106052;27;46880;-21
2022/01/25 08:01:58;;;;;;;5.43;4.07;;;17.90;29.00;;;;;;5106048;27;47318;-21
2022/01/25 08:04:27;;;;;;;6.20;4.40;;;17.90;29.10;;;;;;5105902;27;48817;-21
2022/01/25 08:06:53;;;;;;;6.13;4.65;;;17.90;29.10;;;;;;5106021;27;46811;-21
2022/01/25 08:09:20;;;;;;;5.18;4.32;;;17.90;29.00;;;;;;5105794;27;46900;-22
2022/01/25 08:11:47;;;;;;;6.25;4.32;;;18.00;29.00;;;;;;5105748;27;47039;-22
2022/01/25 08:14:16;;;;;;;5.20;4.57;;;18.00;29.00;;;;;;5105744;27;48233;-21
2022/01/25 08:16:44;;;;;;;5.10;4.53;;;17.90;29.40;;;;;;5105495;27;47167;-22
2022/01/25 08:19:10;;;;;;;6.00;4.28;;;17.90;29.00;;;;;;5105909;27;46915;-21
2022/01/25 08:21:40;;;;;;;6.45;4.32;;;18.00;29.00;;;;;;5105793;27;47309;-21
2022/01/25 08:24:07;;;;;;;4.47;4.00;;;18.00;28.90;;;;;;5105768;27;47057;-21
2022/01/25 08:26:34;;;;;;;5.10;4.47;;;18.00;29.00;;;;;;5105386;27;47116;-20
2022/01/25 08:29:00;;;;;;;5.10;4.13;;;18.00;29.00;;;;;;5105560;27;46930;-21
2022/01/25 08:31:27;;;;;;;7.05;4.55;;;18.00;29.00;;;;;;5105665;27;47177;-21
2022/01/25 08:33:54;;;;;;;4.25;3.85;;;18.00;29.10;;;;;;5108369;27;47088;-21
2022/01/25 08:36:21;;;;;;;5.07;3.92;;;18.00;28.90;;;;;;5108626;27;46942;-21
2022/01/25 08:38:49;;;;;;;4.70;4.30;;;18.10;29.00;;;;;;5108157;27;46787;-21
2022/01/25 08:41:17;;;;;;;6.07;4.43;;;18.10;29.00;;;;;;5108795;27;47040;-21
2022/01/25 08:43:43;;;;;;;4.75;4.22;;;18.10;29.00;;;;;;5107849;27;49012;-21
2022/01/25 08:46:10;;;;;;;4.65;4.13;;;18.10;29.10;;;;;;5109009;27;47001;-21
2022/01/25 08:48:37;;;;;;;5.18;4.55;;;18.10;29.10;;;;;;5109288;27;46864;-21
2022/01/25 08:51:04;;;;;;;6.75;4.65;;;18.10;29.10;;;;;;5109440;27;47131;-13
2022/01/25 08:53:31;;;;;;;5.00;4.18;;;18.20;29.00;;;;;;5108936;27;49111;-13
2022/01/25 08:55:59;;;;;;;5.47;4.05;;;18.20;29.00;;;;;;5108904;27;46865;-13
2022/01/25 08:58:26;;;;;;;4.78;4.18;;;18.20;29.00;;;;;;5108836;27;46822;-13
2022/01/25 09:00:53;;;;;;;4.80;4.15;;;18.20;29.00;;;;;;5109123;27;47287;-13
2022/01/25 09:03:20;;;;;;;4.68;4.20;;;18.20;29.00;;;;;;5108953;27;47822;-13
2022/01/25 09:05:46;;;;;;;3.97;3.58;;;18.20;29.00;;;;;;5108313;27;46915;-13
2022/01/25 09:08:19;;;;;;;6.18;4.22;;;18.30;29.00;;;;;;5108940;27;47000;-13
2022/01/25 09:10:45;;;;;;;5.50;4.60;;;18.30;29.00;;;;;;5108166;27;46916;-13
2022/01/25 09:13:13;;;;;;;4.82;4.28;;;18.20;29.00;;;;;;5108681;27;47975;-14
2022/01/25 09:15:40;;;;;;;4.75;4.25;;;18.20;29.10;;;;;;5108179;27;46852;-13
2022/01/25 09:18:07;;;;;;;4.40;4.00;;;18.30;29.10;;;;;;5108362;27;46899;-13
2022/01/25 09:20:34;;;;;;;6.40;4.45;;;18.30;29.00;;;;;;5107734;27;46898;-13
2022/01/25 09:23:00;;;;;;;5.25;4.25;;;18.30;28.90;;;;;;5108112;27;47949;-13
2022/01/25 09:25:27;;;;;;;5.22;4.30;;;18.30;29.00;;;;;;5108124;27;47035;-13
2022/01/25 09:27:55;;;;;;;5.60;4.20;;;18.40;29.00;;;;;;5108433;27;47082;-22
2022/01/25 09:30:23;;;;;;;6.30;4.82;;;18.30;29.00;;;;;;5107527;27;47140;-21
2022/01/25 09:32:50;;;;;;;5.10;4.07;;;18.30;29.10;;;;;;5107971;27;48132;-23
2022/01/25 09:35:17;;;;;;;5.25;4.72;;;18.40;29.00;;;;;;5107967;27;46991;-22
2022/01/25 09:37:44;;;;;;;5.22;4.55;;;18.40;29.00;;;;;;5108137;27;46905;-22
2022/01/25 09:40:12;;;;;;;5.30;4.50;;;18.40;29.10;;;;;;5108071;27;46933;-22
2022/01/25 09:42:39;;;;;;;4.25;3.75;;;18.40;29.00;;;;;;5107827;27;47005;-22
2022/01/25 09:45:07;;;;;;;5.72;4.65;;;18.40;29.20;;;;;;5107381;27;46991;-21
2022/01/25 09:47:37;;;;;;;5.15;4.65;;;18.40;29.20;;;;;;5107474;27;46931;-22
2022/01/25 09:50:05;;;;;;;6.93;4.35;;;18.40;29.20;;;;;;5107334;27;46886;-22
2022/01/25 09:52:32;;;;;;;4.75;4.28;;;18.40;29.10;;;;;;5107869;27;46873;-21
2022/01/25 09:55:00;;;;;;;4.82;4.18;;;18.50;29.20;;;;;;5107845;27;47284;-21
2022/01/25 09:57:27;;;;;;;5.35;4.60;;;18.40;29.20;;;;;;5107807;27;46840;-22
2022/01/25 09:59:55;;;;;;;6.25;4.75;;;18.40;29.20;;;;;;5107936;27;47201;-21
2022/01/25 10:02:44;;;;;;;5.63;4.82;;;18.40;29.20;;;;;;5107877;27;48230;-21
2022/01/25 10:05:23;;;;;;;5.80;4.80;;;18.50;29.20;;;;;;5113131;27;46934;-21
2022/01/25 10:07:56;;;;;;;5.15;4.65;;;18.50;29.20;;;;;;5107666;27;46883;-21
2022/01/25 10:10:23;;;;;;;5.75;4.55;;;18.60;29.20;;;;;;5105886;27;46937;-21
2022/01/25 10:12:49;;;;;;;4.75;4.25;;;18.60;29.10;;;;;;5106100;27;47950;-21
2022/01/25 10:15:16;;;;;;;5.25;4.70;;;18.60;29.20;;;;;;5106380;27;46979;-21
2022/01/25 10:17:44;;;;;;;5.30;4.57;;;18.60;29.20;;;;;;5106289;27;47042;-21
2022/01/25 10:20:25;;;;;;;6.50;4.75;;;18.60;29.20;;;;;;5106535;27;47010;-21
2022/01/25 10:22:52;;;;;;;5.00;4.40;;;18.60;29.20;;;;;;5105977;27;47936;-20
2022/01/25 10:25:28;;;;;;;5.15;4.60;;;18.70;29.30;;;;;;5107069;27;47041;-20
2022/01/25 10:28:03;;;;;;;6.05;4.88;;;18.70;29.20;;;;;;5107674;27;46848;-21
2022/01/25 10:30:36;;;;;;;5.10;4.57;;;18.70;29.20;;;;;;5107508;27;47023;-20
2022/01/25 10:33:11;;;;;;;5.22;4.68;;;18.70;29.20;;;;;;5107332;27;48999;-21
2022/01/25 10:35:38;;;;;;;6.65;5.03;;;18.70;29.30;;;;;;5107233;27;46860;-21
2022/01/25 10:38:07;;;;;;;6.97;5.28;;;18.70;29.20;;;;;;5107439;27;46912;-13
2022/01/25 10:40:37;;;;;;;6.55;4.82;;;18.80;29.20;;;;;;5106936;27;47099;-13
2022/01/25 10:43:06;;;;;;;6.32;5.03;;;18.80;29.20;;;;;;5107078;27;47953;-13
2022/01/25 10:45:32;;;;;;;6.43;5.25;;;18.80;29.10;;;;;;5107276;27;47002;-12
2022/01/25 10:47:59;;;;;;;5.40;4.75;;;18.90;29.10;;;;;;5107281;27;46810;-13
2022/01/25 10:50:31;;;;;;;5.25;4.72;;;18.90;29.10;;;;;;5106534;27;46743;-13
2022/01/25 10:53:08;;;;;;;6.05;4.68;;;18.90;29.00;;;;;;5107240;27;49039;-21
2022/01/25 10:55:38;;;;;;;5.90;4.53;;;18.90;29.10;;;;;;5104608;27;46972;-21
2022/01/25 10:58:05;;;;;;;5.00;4.50;;;19.00;29.20;;;;;;5105376;27;47176;-21
2022/01/25 11:00:33;;;;;;;7.43;4.72;;;19.00;29.10;;;;;;5110283;27;46959;-21
2022/01/25 11:03:01;;;;;;;5.60;4.32;;;19.10;29.20;;;;;;5105009;27;47110;-20
2022/01/25 11:05:31;;;;;;;5.70;4.78;;;19.10;29.10;;;;;;5104615;27;47040;-21
2022/01/25 11:07:58;;;;;;;4.93;4.43;;;19.10;29.10;;;;;;5105497;27;47142;-13
2022/01/25 11:10:24;;;;;;;6.03;4.88;;;19.20;29.00;;;;;;5104983;27;46972;-13
2022/01/25 11:13:03;;;;;;;5.05;4.20;;;19.20;29.00;;;;;;5106199;27;47943;-13
2022/01/25 11:15:30;;;;;;;5.78;4.72;;;19.20;29.00;;;;;;5106343;27;47188;-13
2022/01/25 11:17:56;;;;;;;5.93;4.60;;;19.20;29.10;;;;;;5106595;27;46982;-13
2022/01/25 11:20:23;;;;;;;5.40;4.32;;;19.20;29.00;;;;;;5107028;27;46900;-13
2022/01/25 11:22:51;;;;;;;5.47;4.47;;;19.30;29.10;;;;;;5106438;27;48145;-13
2022/01/25 11:25:19;;;;;;;5.65;4.63;;;19.30;29.00;;;;;;5106515;27;46870;-13
2022/01/25 11:27:46;;;;;;;6.10;4.60;;;19.40;29.00;;;;;;5105884;27;46904;-13
2022/01/25 11:30:15;;;;;;;5.07;4.32;;;19.30;28.90;;;;;;5106755;27;46922;-13
2022/01/25 11:32:43;;;;;;;5.35;4.60;;;19.40;29.00;;;;;;5105983;27;48062;-13
2022/01/25 11:35:11;;;;;;;5.57;4.57;;;19.40;28.90;;;;;;5106760;27;46999;-13
2022/01/25 11:37:39;;;;;;;4.60;4.05;;;19.50;28.90;;;;;;5123659;27;46801;-13
2022/01/25 11:40:21;;;;;;;4.53;4.13;;;19.50;28.80;;;;;;5126933;27;46851;-13
2022/01/25 11:42:48;;;;;;;4.93;4.40;;;19.60;28.90;;;;;;5126195;27;47913;-20
2022/01/25 11:45:15;;;;;;;6.28;4.40;;;19.60;28.80;;;;;;5127019;27;46894;-13
2022/01/25 11:47:42;;;;;;;5.80;4.50;;;19.60;28.90;;;;;;5110053;27;47046;-14
2022/01/25 11:50:09;;;;;;;4.45;3.90;;;19.70;28.80;;;;;;5106180;27;47139;-13
2022/01/25 11:52:36;;;;;;;4.90;4.40;;;19.70;28.80;;;;;;5108897;27;47934;-13
2022/01/25 11:55:24;;;;;;;5.18;4.53;;;19.70;28.90;;;;;;5105812;27;46926;-12
2022/01/25 11:57:54;;;;;;;4.63;4.22;;;19.70;28.80;;;;;;5111558;27;46831;-13
2022/01/25 12:00:21;;;;;;;4.88;4.38;;;19.80;28.90;;;;;;5120715;27;47022;-13
2022/01/25 12:02:50;;;;;;;5.03;4.53;;;19.80;28.90;;;;;;5126364;27;47841;-13
2022/01/25 12:05:18;;;;;;;4.97;4.47;;;19.80;28.80;;;;;;5116980;27;47569;-13
2022/01/25 12:08:06;;;;;;;4.70;4.30;;;19.80;28.80;;;;;;5111956;27;47029;-13
2022/01/25 12:10:37;;;;;;;9.85;6.18;;;19.90;28.80;;;;;;5105663;27;46914;-12
2022/01/25 12:13:12;;;;;;;8.77;6.00;;;19.90;29.10;;;;;;5105612;27;48043;-12
2022/01/25 12:15:38;;;;;;;5.45;5.03;;;20.10;29.30;;;;;;5105411;27;46914;-15
2022/01/25 12:18:07;;;;;;;13.45;5.88;;;20.10;29.00;;;;;;5104531;27;46839;-14
2022/01/25 12:20:35;;;;;;;7.63;5.82;;;20.20;29.10;;;;;;5105486;27;46991;-14
2022/01/25 12:23:05;;;;;;;8.98;5.85;;;20.20;29.10;;;;;;5104965;27;48112;-14
2022/01/25 12:25:47;;;;;;;7.43;6.22;;;20.20;29.10;;;;;;5104627;27;46970;-14
2022/01/25 12:28:23;;;;;;;11.25;6.88;;;20.20;29.10;;;;;;5113711;27;47114;-15
2022/01/25 12:30:50;;;;;;;7.60;6.57;;;20.30;29.60;;;;;;5117532;27;46952;-15
2022/01/25 12:33:21;;;;;;;8.85;7.45;;;20.40;29.90;;;;;;5111477;27;46914;-12
2022/01/25 12:35:49;;;;;;;8.68;6.43;;;20.50;29.30;;;;;;5122023;27;47261;-13
2022/01/25 12:38:19;;;;;;;9.75;6.80;;;20.50;29.10;;;;;;5121234;27;47078;-15
2022/01/25 12:40:53;;;;;;;10.02;6.90;;;20.60;29.10;;;;;;5124449;27;47163;-13
2022/01/25 12:43:23;;;;;;;11.10;6.55;;;20.70;28.90;;;;;;5124035;27;48803;-15
2022/01/25 12:45:54;;;;;;;8.32;6.18;;;20.60;29.00;;;;;;5114864;27;47268;-16
2022/01/25 12:48:24;;;;;;;8.18;6.55;;;20.50;29.20;;;;;;5106367;27;47047;-14
2022/01/25 12:50:52;;;;;;;6.55;5.78;;;20.40;29.30;;;;;;5102942;27;47135;-13
2022/01/25 12:53:21;;;;;;;6.40;5.80;;;20.30;29.10;;;;;;5102793;27;47377;-13
2022/01/25 12:55:49;;;;;;;6.57;5.80;;;20.30;29.40;;;;;;5103986;27;47029;-24
2022/01/25 12:58:15;;;;;;;7.68;6.10;;;20.20;29.70;;;;;;5106423;27;47171;-23
2022/01/25 13:00:45;;;;;;;13.15;6.32;;;20.20;30.00;;;;;;5101744;27;47032;-24
2022/01/25 13:03:29;;;;;;;7.18;6.13;;;20.30;29.80;;;;;;5103517;27;49263;-22
2022/01/25 13:05:58;;;;;;;6.20;5.60;;;20.30;29.80;;;;;;5122708;27;47070;-22
2022/01/25 13:08:32;;;;;;;9.15;5.80;;;20.20;29.90;;;;;;5124687;27;47075;-20
2022/01/25 13:11:21;;;;;;;6.60;5.50;;;20.10;30.00;;;;;;5125905;27;47016;-20
2022/01/25 13:13:58;;;;;;;7.25;5.75;;;20.10;29.90;;;;;;5125841;27;47052;-21
2022/01/25 13:16:41;;;;;;;7.22;5.30;;;20.20;30.00;;;;;;5125591;27;46966;-20
2022/01/25 13:19:08;;;;;;;5.72;5.05;;;20.30;30.00;;;;;;5127376;27;46990;-21
2022/01/25 13:21:39;;;;;;;7.65;5.45;;;20.30;29.80;;;;;;5129146;27;46886;-21
2022/01/25 13:24:08;;;;;;;6.40;4.93;;;20.40;30.00;;;;;;5129009;27;48075;-21
2022/01/25 13:26:39;;;;;;;5.68;5.03;;;20.50;30.00;;;;;;5129073;27;47430;-22
2022/01/25 13:30:39;;;;;;;7.13;4.72;;;20.50;30.00;;;;;;5129126;27;46926;-20
2022/01/25 13:32:14;;;;;;;6.90;4.90;;;20.60;30.00;;;;;;5128874;27;46967;-21
2022/01/25 13:34:41;;;;;;;8.18;5.20;;;20.70;29.90;;;;;;5127964;27;47995;-20
2022/01/25 13:37:19;;;;;;;8.10;5.43;;;20.70;29.90;;;;;;5127653;27;46954;-21
2022/01/25 13:39:55;;;;;;;6.10;5.10;;;20.70;30.00;;;;;;5129129;27;46830;-21
2022/01/25 13:42:26;;;;;;;7.60;4.72;;;20.70;29.90;;;;;;5129214;27;46956;-20
2022/01/25 13:47:58;;;;;;;7.60;4.70;;;20.60;30.00;;;;;;5126089;27;46858;-20
2022/01/25 13:50:26;;;;;;;7.03;4.70;;;20.60;30.00;;;;;;5128718;27;46837;-21
2022/01/25 13:52:52;;;;;;;10.02;5.35;;;20.50;30.00;;;;;;5128641;27;47102;-20
2022/01/25 13:55:19;;;;;;;6.53;4.72;;;20.40;30.30;;;;;;5128579;27;48132;-20
2022/01/25 13:57:46;;;;;;;15.48;5.22;;;20.30;30.40;;;;;;5128338;27;46833;-20
2022/01/25 14:00:13;;;;;;;6.40;4.90;;;20.20;30.60;;;;;;5128779;27;46748;-22
2022/01/25 14:02:40;;;;;;;6.05;5.00;;;20.10;30.70;;;;;;5128895;27;46920;-21
2022/01/25 14:05:09;;;;;;;7.65;5.38;;;20.10;31.20;;;;;;5128181;27;47921;-22
2022/01/25 14:07:36;;;;;;;7.18;5.93;;;20.00;30.90;;;;;;5128577;27;46976;-20
2022/01/25 14:10:06;;;;;;;12.48;5.88;;;19.90;31.00;;;;;;5128230;27;46814;-21
2022/01/25 14:23:45;;;;;;;12.95;9.63;;;19.80;31.70;;;;;;5125612;27;47019;-21